createdAt,value
2018-11-03T00:01:22.126Z,12.43
2018-11-03T00:03:49.511Z,9.95
2018-11-03T00:06:16.877Z,8.83
2018-11-03T00:08:44.255Z,9.40
2018-11-03T00:11:11.646Z,10.80
2018-11-03T00:13:39.011Z,12.65
2018-11-03T00:16:06.430Z,10.15
2018-11-03T00:18:33.812Z,11.08
2018-11-03T00:21:01.187Z,12.88
2018-11-03T00:23:28.590Z,10.20
2018-11-03T00:25:55.954Z,9.60
2018-11-03T00:28:23.330Z,9.23
2018-11-03T00:30:50.750Z,10.03
2018-11-03T00:33:18.134Z,11.75
2018-11-03T00:35:45.510Z,10.85
2018-11-03T00:38:12.917Z,8.43
2018-11-03T00:40:40.280Z,9.57
2018-11-03T00:43:07.650Z,12.20
2018-11-03T00:45:35.022Z,9.10
2018-11-03T00:48:02.400Z,14.58
2018-11-03T00:50:33.451Z,9.53
2018-11-03T00:53:00.838Z,9.67
2018-11-03T00:55:28.202Z,8.80
2018-11-03T00:57:55.574Z,9.00
2018-11-03T01:00:22.971Z,7.50
2018-11-03T01:02:50.350Z,12.33
2018-11-03T01:05:17.715Z,11.93
2018-11-03T01:07:45.610Z,10.17
2018-11-03T01:10:13.018Z,11.60
2018-11-03T01:12:40.938Z,9.65
2018-11-03T01:15:09.710Z,10.85
2018-11-03T01:17:37.094Z,10.88
2018-11-03T01:20:05.110Z,14.33
2018-11-03T01:22:32.502Z,9.95
2018-11-03T01:25:06.205Z,16.30
2018-11-03T01:27:33.626Z,11.83
2018-11-03T01:30:01.012Z,11.65
2018-11-03T01:32:28.441Z,12.70
2018-11-03T01:34:55.833Z,14.50
2018-11-03T01:37:23.210Z,12.70
2018-11-03T01:39:50.575Z,15.18
2018-11-03T01:42:17.996Z,11.83
2018-11-03T01:44:45.350Z,11.48
2018-11-03T01:47:12.722Z,15.93
2018-11-03T01:49:40.114Z,10.15
2018-11-03T01:52:07.478Z,15.10
2018-11-03T01:54:34.862Z,10.58
2018-11-03T01:57:02.248Z,12.37
2018-11-03T01:59:29.612Z,12.30
2018-11-03T02:01:56.998Z,13.43
2018-11-03T02:04:24.366Z,14.00
2018-11-03T02:06:51.750Z,10.80
2018-11-03T02:09:19.133Z,14.78
2018-11-03T02:11:46.544Z,11.60
2018-11-03T02:14:17.095Z,14.18
2018-11-03T02:16:44.458Z,10.45
2018-11-03T02:19:11.849Z,13.48
2018-11-03T02:21:39.222Z,12.33
2018-11-03T02:24:06.699Z,12.75
2018-11-03T02:26:34.118Z,15.00
2018-11-03T02:29:01.475Z,15.72
2018-11-03T02:31:28.888Z,14.68
2018-11-03T02:33:56.304Z,11.93
2018-11-03T02:36:23.670Z,10.82
2018-11-03T02:38:51.078Z,17.50
2018-11-03T02:41:18.468Z,17.10
2018-11-03T02:43:45.827Z,10.23
2018-11-03T02:46:13.215Z,15.30
2018-11-03T02:48:40.670Z,13.55
2018-11-03T02:51:08.055Z,11.95
2018-11-03T02:53:35.422Z,14.47
2018-11-03T02:56:02.794Z,13.08
2018-11-03T02:58:30.175Z,15.35
2018-11-03T03:00:57.539Z,16.48
2018-11-03T03:03:28.502Z,13.78
2018-11-03T03:05:55.879Z,16.62
2018-11-03T03:08:23.234Z,14.03
2018-11-03T03:10:50.630Z,19.02
2018-11-03T03:13:17.990Z,11.70
2018-11-03T03:15:45.343Z,15.48
2018-11-03T03:18:12.736Z,14.70
2018-11-03T03:20:40.098Z,14.90
2018-11-03T03:23:07.466Z,16.93
2018-11-03T03:25:34.852Z,16.67
2018-11-03T03:28:02.227Z,17.07
2018-11-03T03:30:29.603Z,15.43
2018-11-03T03:32:56.975Z,15.38
2018-11-03T03:35:24.338Z,14.53
2018-11-03T03:37:51.728Z,15.25
2018-11-03T03:40:19.106Z,15.48
2018-11-03T03:42:46.469Z,19.27
2018-11-03T03:45:13.842Z,14.20
2018-11-03T03:47:41.232Z,16.20
2018-11-03T03:50:10.342Z,14.75
2018-11-03T03:52:41.497Z,14.50
2018-11-03T03:55:09.158Z,16.23
2018-11-03T03:57:40.338Z,22.35
2018-11-03T04:00:08.690Z,16.80
2018-11-03T04:02:36.090Z,15.68
2018-11-03T04:05:03.502Z,19.20
2018-11-03T04:07:30.858Z,18.10
2018-11-03T04:09:58.263Z,17.52
2018-11-03T04:12:25.658Z,24.47
2018-11-03T04:14:53.079Z,16.62
2018-11-03T04:17:20.454Z,16.50
2018-11-03T04:19:51.074Z,14.20
2018-11-03T04:22:18.455Z,16.70
2018-11-03T04:24:45.830Z,18.07
2018-11-03T04:27:13.186Z,17.02
2018-11-03T04:29:40.571Z,22.87
2018-11-03T04:32:07.947Z,19.50
2018-11-03T04:34:35.327Z,18.73
2018-11-03T04:37:02.692Z,21.05
2018-11-03T04:39:30.099Z,17.73
2018-11-03T04:41:57.438Z,21.15
2018-11-03T04:44:24.855Z,17.80
2018-11-03T04:46:52.226Z,16.42
2018-11-03T04:49:19.598Z,18.50
2018-11-03T04:51:46.963Z,18.60
2018-11-03T04:54:14.359Z,19.67
2018-11-03T04:56:41.739Z,17.95
2018-11-03T04:59:09.182Z,18.17
2018-11-03T05:01:36.555Z,28.87
2018-11-03T05:04:03.952Z,20.40
2018-11-03T05:06:31.305Z,14.65
2018-11-03T05:08:58.666Z,15.93
2018-11-03T05:11:26.106Z,18.80
2018-11-03T05:13:53.479Z,17.65
2018-11-03T05:16:20.854Z,19.23
2018-11-03T05:18:51.295Z,23.45
2018-11-03T05:21:18.669Z,19.77
2018-11-03T05:23:46.051Z,18.27
2018-11-03T05:26:13.415Z,19.65
2018-11-03T05:28:46.563Z,17.73
2018-11-03T05:31:13.999Z,16.55
2018-11-03T05:33:41.298Z,16.67
2018-11-03T05:36:08.667Z,19.73
2018-11-03T05:38:36.034Z,20.52
2018-11-03T05:41:03.470Z,18.75
2018-11-03T05:43:30.819Z,14.93
2018-11-03T05:45:58.230Z,19.80
2018-11-03T05:48:25.598Z,20.82
2018-11-03T05:50:52.957Z,22.45
2018-11-03T05:53:20.337Z,18.00
2018-11-03T05:55:47.698Z,18.32
2018-11-03T05:58:15.050Z,17.25
2018-11-03T06:00:42.435Z,20.00
2018-11-03T06:03:09.811Z,21.25
2018-11-03T06:05:37.182Z,19.80
2018-11-03T06:08:04.926Z,22.67
2018-11-03T06:10:32.290Z,18.75
2018-11-03T06:12:59.650Z,25.27
2018-11-03T06:15:27.188Z,23.38
2018-11-03T06:17:54.434Z,20.62
2018-11-03T06:20:21.799Z,19.40
2018-11-03T06:22:49.289Z,18.40
2018-11-03T06:25:16.559Z,16.25
2018-11-03T06:27:43.938Z,21.10
2018-11-03T06:30:11.422Z,17.02
2018-11-03T06:32:38.974Z,19.77
2018-11-03T06:35:08.217Z,20.75
2018-11-03T06:37:35.599Z,22.02
2018-11-03T06:40:03.215Z,20.50
2018-11-03T06:42:30.579Z,20.40
2018-11-03T06:44:57.990Z,17.77
2018-11-03T06:47:25.475Z,21.93
2018-11-03T06:49:52.826Z,25.90
2018-11-03T06:52:20.315Z,22.90
2018-11-03T06:54:47.598Z,16.90
2018-11-03T06:57:14.968Z,16.23
2018-11-03T06:59:42.359Z,19.57
2018-11-03T07:02:09.783Z,19.70
2018-11-03T07:04:38.103Z,17.77
2018-11-03T07:07:05.504Z,16.90
2018-11-03T07:09:32.864Z,19.45
2018-11-03T07:12:00.333Z,18.52
2018-11-03T07:14:27.623Z,18.67
2018-11-03T07:16:55.003Z,19.37
2018-11-03T07:19:22.419Z,19.73
2018-11-03T07:21:49.945Z,22.27
2018-11-03T07:24:17.191Z,15.25
2018-11-03T07:26:44.570Z,17.95
2018-11-03T07:29:11.946Z,19.00
2018-11-03T07:31:39.322Z,15.65
2018-11-03T07:34:06.690Z,27.85
2018-11-03T07:36:34.086Z,19.67
2018-11-03T07:39:01.576Z,22.20
2018-11-03T07:41:28.985Z,20.10
2018-11-03T07:43:56.439Z,21.62
2018-11-03T07:46:23.832Z,16.40
2018-11-03T07:48:51.246Z,18.25
2018-11-03T07:51:18.543Z,19.12
2018-11-03T07:53:45.902Z,22.02
2018-11-03T07:56:13.283Z,18.52
2018-11-03T07:58:40.652Z,19.82
2018-11-03T08:01:08.027Z,22.58
2018-11-03T08:03:35.410Z,17.67
2018-11-03T08:06:02.798Z,19.30
2018-11-03T08:08:30.163Z,18.70
2018-11-03T08:10:57.521Z,18.77
2018-11-03T08:13:24.902Z,18.60
2018-11-03T08:15:52.337Z,22.52
2018-11-03T08:18:19.653Z,21.85
2018-11-03T08:20:47.058Z,14.15
2018-11-03T08:23:14.443Z,19.17
2018-11-03T08:25:41.797Z,21.77
2018-11-03T08:28:09.183Z,20.62
2018-11-03T08:30:36.551Z,15.08
2018-11-03T08:33:04.082Z,18.65
2018-11-03T08:35:31.457Z,15.00
2018-11-03T08:37:58.835Z,15.68
2018-11-03T08:40:26.215Z,15.08
2018-11-03T08:42:53.595Z,20.50
2018-11-03T08:45:20.985Z,20.92
2018-11-03T08:47:51.835Z,14.80
2018-11-03T08:50:19.248Z,23.77
2018-11-03T08:52:46.623Z,19.65
2018-11-03T08:55:14.023Z,15.60
2018-11-03T08:57:41.871Z,19.60
2018-11-03T09:00:10.805Z,13.62
2018-11-03T09:02:38.319Z,29.07
2018-11-03T09:05:06.495Z,16.05
2018-11-03T09:07:34.577Z,17.90
2018-11-03T09:10:02.139Z,13.50
2018-11-03T09:12:29.542Z,18.43
2018-11-03T09:14:56.975Z,12.77
2018-11-03T09:17:24.298Z,15.17
2018-11-03T09:19:51.667Z,14.77
2018-11-03T09:22:19.014Z,13.60
2018-11-03T09:24:46.382Z,16.10
2018-11-03T09:27:13.804Z,14.77
2018-11-03T09:29:41.139Z,13.00
2018-11-03T09:32:08.513Z,13.23
2018-11-03T09:34:35.926Z,19.47
2018-11-03T09:37:03.282Z,14.03
2018-11-03T09:39:30.643Z,12.70
2018-11-03T09:41:58.018Z,15.90
2018-11-03T09:44:25.366Z,18.07
2018-11-03T09:46:52.739Z,14.90
2018-11-03T09:49:20.222Z,14.50
2018-11-03T09:51:47.588Z,15.60
2018-11-03T09:54:14.995Z,15.07
2018-11-03T09:56:42.461Z,16.03
2018-11-03T09:59:09.722Z,12.10
2018-11-03T10:01:37.086Z,18.43
2018-11-03T10:04:04.688Z,19.30
2018-11-03T10:06:32.159Z,12.97
2018-11-03T10:08:59.474Z,12.50
2018-11-03T10:11:26.854Z,13.83
2018-11-03T10:13:54.238Z,14.00
2018-11-03T10:16:21.622Z,18.77
2018-11-03T10:18:55.046Z,11.93
2018-11-03T10:21:22.419Z,19.23
2018-11-03T10:23:49.791Z,12.50
2018-11-03T10:26:17.266Z,14.50
2018-11-03T10:28:44.722Z,15.40
2018-11-03T10:31:12.263Z,13.20
2018-11-03T10:33:39.995Z,14.60
2018-11-03T10:36:07.563Z,17.50
2018-11-03T10:38:35.203Z,11.13
2018-11-03T10:41:02.776Z,13.88
2018-11-03T10:43:30.444Z,16.47
2018-11-03T10:45:58.029Z,13.30
2018-11-03T10:48:25.656Z,13.00
2018-11-03T10:50:53.283Z,13.97
2018-11-03T10:53:20.920Z,16.60
2018-11-03T10:55:48.537Z,13.23
2018-11-03T10:58:16.115Z,16.50
2018-11-03T11:00:49.355Z,14.87
2018-11-03T11:03:22.701Z,12.47
2018-11-03T11:05:56.611Z,16.07
2018-11-03T11:08:30.387Z,11.70
2018-11-03T11:11:03.759Z,13.33
2018-11-03T11:13:33.292Z,14.03
2018-11-03T11:16:01.123Z,11.20
2018-11-03T11:18:28.576Z,14.20
2018-11-03T11:20:56.188Z,14.57
2018-11-03T11:23:23.907Z,20.70
2018-11-03T11:25:51.519Z,12.10
2018-11-03T11:28:19.147Z,17.23
2018-11-03T11:30:46.847Z,11.77
2018-11-03T11:33:15.606Z,12.07
2018-11-03T11:35:43.258Z,12.37
2018-11-03T11:38:11.671Z,12.23
2018-11-03T11:40:39.738Z,10.97
2018-11-03T11:43:08.554Z,10.73
2018-11-03T11:45:36.167Z,12.10
2018-11-03T11:48:03.838Z,10.03
2018-11-03T11:50:31.540Z,7.97
2018-11-03T11:52:59.195Z,10.53
2018-11-03T11:55:26.911Z,11.90
2018-11-03T11:57:54.516Z,10.07
2018-11-03T12:00:22.123Z,9.40
2018-11-03T12:02:49.718Z,8.43
2018-11-03T12:05:17.352Z,11.17
2018-11-03T12:07:44.978Z,9.87
2018-11-03T12:10:12.746Z,9.90
2018-11-03T12:12:40.329Z,9.73
2018-11-03T12:15:08.503Z,10.47
2018-11-03T12:17:36.204Z,10.97
2018-11-03T12:20:03.885Z,12.30
2018-11-03T12:22:34.785Z,10.45
2018-11-03T12:25:02.400Z,11.27
2018-11-03T12:27:30.039Z,12.73
2018-11-03T12:29:57.644Z,13.70
2018-11-03T12:32:25.398Z,13.47
2018-11-03T12:34:54.019Z,12.60
2018-11-03T12:37:21.632Z,10.37
2018-11-03T12:39:49.374Z,9.17
2018-11-03T12:42:16.979Z,9.93
2018-11-03T12:44:44.752Z,11.33
2018-11-03T12:47:12.408Z,11.20
2018-11-03T12:49:40.133Z,11.07
2018-11-03T12:52:07.833Z,11.90
2018-11-03T12:54:35.525Z,14.23
2018-11-03T12:57:03.231Z,10.93
2018-11-03T12:59:33.435Z,11.53
2018-11-03T13:02:01.228Z,12.80
2018-11-03T13:04:28.855Z,10.77
2018-11-03T13:06:56.637Z,10.30
2018-11-03T13:09:24.034Z,10.00
2018-11-03T13:11:51.668Z,11.03
2018-11-03T13:14:19.259Z,9.90
2018-11-03T13:16:46.879Z,10.07
2018-11-03T13:19:14.512Z,11.63
2018-11-03T13:21:42.101Z,13.97
2018-11-03T13:24:09.760Z,10.97
2018-11-03T13:26:37.405Z,10.87
2018-11-03T13:29:05.077Z,14.80
2018-11-03T13:31:32.704Z,9.63
2018-11-03T13:34:00.295Z,11.67
2018-11-03T13:36:27.851Z,12.13
2018-11-03T13:38:55.466Z,11.37
2018-11-03T13:41:23.039Z,12.50
2018-11-03T13:43:50.631Z,11.00
2018-11-03T13:46:18.457Z,13.20
2018-11-03T13:48:46.119Z,12.10
2018-11-03T13:51:13.695Z,10.93
2018-11-03T13:53:41.310Z,9.57
2018-11-03T13:56:09.077Z,12.20
2018-11-03T13:58:36.700Z,10.97
2018-11-03T14:01:04.393Z,9.63
2018-11-03T14:03:31.921Z,8.97
2018-11-03T14:05:59.477Z,12.80
2018-11-03T14:08:27.058Z,10.03
2018-11-03T14:10:54.789Z,10.27
2018-11-03T14:13:22.487Z,10.00
2018-11-03T14:15:49.982Z,9.53
2018-11-03T14:18:20.848Z,11.80
2018-11-03T14:20:48.439Z,10.53
2018-11-03T14:23:16.064Z,10.90
2018-11-03T14:25:43.628Z,12.17
2018-11-03T14:28:11.236Z,10.23
2018-11-03T14:30:38.804Z,9.13
2018-11-03T14:33:06.492Z,10.27
2018-11-03T14:35:34.184Z,10.43
2018-11-03T14:38:01.772Z,10.40
2018-11-03T14:40:29.412Z,9.40
2018-11-03T14:42:56.975Z,10.10
2018-11-03T14:45:28.101Z,12.10
2018-11-03T14:47:58.711Z,10.73
2018-11-03T14:50:32.279Z,9.23
2018-11-03T14:52:59.878Z,16.53
2018-11-03T14:55:27.479Z,10.30
2018-11-03T14:57:55.148Z,12.40
2018-11-03T15:00:22.791Z,10.63
2018-11-03T15:02:50.365Z,10.50
2018-11-03T15:05:17.969Z,10.10
2018-11-03T15:07:45.654Z,11.73
2018-11-03T15:10:13.681Z,9.33
2018-11-03T15:12:42.679Z,12.87
2018-11-03T15:15:11.744Z,14.97
2018-11-03T15:17:39.384Z,9.33
2018-11-03T15:20:07.527Z,9.23
2018-11-03T15:22:35.182Z,9.27
2018-11-03T15:25:02.798Z,9.50
2018-11-03T15:27:30.428Z,10.23
2018-11-03T15:29:58.023Z,10.57
2018-11-03T15:32:25.604Z,11.40
2018-11-03T15:34:53.245Z,17.50
2018-11-03T15:37:20.871Z,9.80
2018-11-03T15:39:48.396Z,8.93
2018-11-03T15:42:16.024Z,9.60
2018-11-03T15:44:43.592Z,12.90
2018-11-03T15:47:11.172Z,9.40
2018-11-03T15:49:38.732Z,12.77
2018-11-03T15:52:12.325Z,10.67
2018-11-03T15:54:39.929Z,11.47
2018-11-03T15:57:07.543Z,11.00
2018-11-03T15:59:35.129Z,11.57
2018-11-03T16:02:02.720Z,10.93
2018-11-03T16:04:30.308Z,13.93
2018-11-03T16:06:57.913Z,18.23
2018-11-03T16:09:25.504Z,12.97
2018-11-03T16:11:53.123Z,16.60
2018-11-03T16:14:20.725Z,20.90
2018-11-03T16:16:48.301Z,15.80
2018-11-03T16:19:15.924Z,13.17
2018-11-03T16:21:43.484Z,16.57
2018-11-03T16:24:11.115Z,14.70
2018-11-03T16:26:38.715Z,15.67
2018-11-03T16:29:06.389Z,14.53
2018-11-03T16:31:33.976Z,13.85
2018-11-03T16:34:01.576Z,16.17
2018-11-03T16:36:29.118Z,15.72
2018-11-03T16:39:00.183Z,21.02
2018-11-03T16:41:27.751Z,16.97
2018-11-03T16:43:55.379Z,15.20
2018-11-03T16:46:23.018Z,12.37
2018-11-03T16:48:50.641Z,12.93
2018-11-03T16:51:18.259Z,17.23
2018-11-03T16:53:45.827Z,17.20
2018-11-03T16:56:13.534Z,16.00
2018-11-03T16:58:41.252Z,20.35
2018-11-03T17:01:08.864Z,14.65
2018-11-03T17:03:36.503Z,14.18
2018-11-03T17:06:04.160Z,14.98
2018-11-03T17:08:31.783Z,13.22
2018-11-03T17:10:59.371Z,16.10
2018-11-03T17:13:26.999Z,14.75
2018-11-03T17:15:54.599Z,15.32
2018-11-03T17:18:22.335Z,15.45
2018-11-03T17:20:49.954Z,16.82
2018-11-03T17:23:17.606Z,13.58
2018-11-03T17:25:45.561Z,16.57
2018-11-03T17:28:13.562Z,13.65
2018-11-03T17:30:42.645Z,15.95
2018-11-03T17:33:12.185Z,13.65
2018-11-03T17:35:42.247Z,14.85
2018-11-03T17:38:10.214Z,13.43
2018-11-03T17:40:38.167Z,14.25
2018-11-03T17:43:05.947Z,13.45
2018-11-03T17:45:43.239Z,19.32
2018-11-03T17:48:10.836Z,19.23
2018-11-03T17:50:38.447Z,17.45
2018-11-03T17:53:05.989Z,16.45
2018-11-03T17:55:33.569Z,14.83
2018-11-03T17:58:01.236Z,15.35
2018-11-03T18:00:29.025Z,11.50
2018-11-03T18:02:56.524Z,14.23
2018-11-03T18:05:24.104Z,14.90
2018-11-03T18:07:51.707Z,16.15
2018-11-03T18:10:23.214Z,20.05
2018-11-03T18:28:21.848Z,11.12
2018-11-03T18:30:49.500Z,11.10
2018-11-03T18:33:17.136Z,11.70
2018-11-03T18:35:44.660Z,14.25
2018-11-03T18:38:12.255Z,13.13
2018-11-03T18:40:39.909Z,12.88
2018-11-03T18:43:11.174Z,14.35
2018-11-03T18:45:38.731Z,13.65
2018-11-03T18:48:06.288Z,14.65
2018-11-03T18:50:33.869Z,11.15
2018-11-03T18:53:01.531Z,14.70
2018-11-03T18:55:29.131Z,13.62
2018-11-03T18:57:56.716Z,11.70
2018-11-03T19:00:24.259Z,12.05
2018-11-03T19:02:52.064Z,11.73
2018-11-03T19:05:19.892Z,12.70
2018-11-03T19:07:47.861Z,10.25
2018-11-03T19:10:15.688Z,14.78
2018-11-03T19:12:43.498Z,13.78
2018-11-03T19:15:12.016Z,15.68
2018-11-03T19:17:40.392Z,13.05
2018-11-03T19:20:10.420Z,13.60
2018-11-03T19:22:39.688Z,15.68
2018-11-03T19:25:08.833Z,15.58
2018-11-03T19:27:36.683Z,13.45
2018-11-03T19:30:05.365Z,12.70
2018-11-03T19:32:34.499Z,16.30
2018-11-03T19:35:02.199Z,14.35
2018-11-03T19:37:29.804Z,21.02
2018-11-03T19:39:57.391Z,16.97
2018-11-03T19:42:28.511Z,17.42
2018-11-03T19:44:56.184Z,14.78
2018-11-03T19:47:23.896Z,14.40
2018-11-03T19:49:51.517Z,18.57
2018-11-03T19:52:19.167Z,13.88
2018-11-03T19:54:46.852Z,21.05
2018-11-03T19:57:14.543Z,14.85
2018-11-03T19:59:42.185Z,14.93
2018-11-03T20:02:11.768Z,16.20
2018-11-03T20:04:39.408Z,19.52
2018-11-03T20:07:07.017Z,19.00
2018-11-03T20:09:34.661Z,18.32
2018-11-03T20:12:02.360Z,16.80
2018-11-03T20:14:30.017Z,14.53
2018-11-03T20:16:57.677Z,14.33
2018-11-03T20:19:25.335Z,15.63
2018-11-03T20:21:52.946Z,17.37
2018-11-03T20:24:20.600Z,16.55
2018-11-03T20:26:48.275Z,15.28
2018-11-03T20:29:15.873Z,16.40
2018-11-03T20:31:44.630Z,16.23
2018-11-03T20:34:12.335Z,14.87
2018-11-03T20:36:39.758Z,14.00
2018-11-03T20:39:07.727Z,34.98
2018-11-03T20:41:35.141Z,41.05
2018-11-03T20:44:02.518Z,25.37
2018-11-03T20:46:29.907Z,16.32
2018-11-03T20:48:57.281Z,18.52
2018-11-03T20:51:24.699Z,20.00
2018-11-03T20:53:52.158Z,17.45
2018-11-03T20:56:22.911Z,15.30
2018-11-03T20:58:50.306Z,17.25
2018-11-03T21:01:17.674Z,18.10
2018-11-03T21:03:45.071Z,18.45
2018-11-03T21:06:12.454Z,17.30
2018-11-03T21:08:39.827Z,16.12
2018-11-03T21:11:07.213Z,16.42
2018-11-03T21:13:34.586Z,18.95
2018-11-03T21:16:02.699Z,15.98
2018-11-03T21:18:30.093Z,19.37
2018-11-03T21:20:57.492Z,25.62
2018-11-03T21:23:24.912Z,15.85
2018-11-03T21:25:52.346Z,16.45
2018-11-03T21:28:19.742Z,17.85
2018-11-03T21:30:47.144Z,15.83
2018-11-03T21:33:14.836Z,19.10
2018-11-03T21:35:41.898Z,17.05
2018-11-03T21:38:09.338Z,17.57
2018-11-03T21:40:37.015Z,24.18
2018-11-03T21:43:04.489Z,17.30
2018-11-03T21:45:31.887Z,23.55
2018-11-03T21:47:59.304Z,17.75
2018-11-03T21:50:26.746Z,14.35
2018-11-03T21:52:54.191Z,20.97
2018-11-03T21:55:21.570Z,17.20
2018-11-03T21:57:48.982Z,15.50
2018-11-03T22:00:16.377Z,16.73
2018-11-03T22:02:44.983Z,20.20
2018-11-03T22:05:13.328Z,16.57
2018-11-03T22:07:41.083Z,22.50
2018-11-03T22:10:08.953Z,27.65
2018-11-03T22:12:36.370Z,15.75
2018-11-03T22:15:03.979Z,15.63
2018-11-03T22:17:31.343Z,21.07
2018-11-03T22:19:58.802Z,17.13
2018-11-03T22:22:26.190Z,17.98
2018-11-03T22:24:53.566Z,16.02
2018-11-03T22:27:20.965Z,16.37
2018-11-03T22:29:48.334Z,17.60
2018-11-03T22:32:15.690Z,19.40
2018-11-03T22:34:43.086Z,17.60
2018-11-03T22:37:10.453Z,16.95
2018-11-03T22:39:37.834Z,17.40
2018-11-03T22:42:05.266Z,18.40
2018-11-03T22:44:32.737Z,15.98
2018-11-03T22:47:00.184Z,19.45
2018-11-03T22:49:27.558Z,13.73
2018-11-03T22:51:54.974Z,18.02
2018-11-03T22:54:23.303Z,18.40
2018-11-03T22:56:50.716Z,13.80
2018-11-03T22:59:18.209Z,18.23
2018-11-03T23:01:45.510Z,16.93
2018-11-03T23:04:13.120Z,14.67
2018-11-03T23:06:40.527Z,20.80
2018-11-03T23:09:07.909Z,15.27
2018-11-03T23:11:35.323Z,18.98
2018-11-03T23:14:02.707Z,16.10
2018-11-03T23:16:33.779Z,15.67
2018-11-03T23:19:01.187Z,16.70
2018-11-03T23:21:28.558Z,18.00
2018-11-03T23:23:56.006Z,15.43
2018-11-03T23:26:23.778Z,18.37
2018-11-03T23:28:51.198Z,19.07
2018-11-03T23:31:18.574Z,16.63
2018-11-03T23:33:45.955Z,16.67
2018-11-03T23:36:13.314Z,16.10
2018-11-03T23:38:40.707Z,17.60
2018-11-03T23:41:08.095Z,17.13
2018-11-03T23:43:35.463Z,18.00
2018-11-03T23:46:02.844Z,18.53
2018-11-03T23:48:30.231Z,18.70
2018-11-03T23:50:57.598Z,15.63
2018-11-03T23:53:25.048Z,19.27
2018-11-03T23:55:52.461Z,16.87
2018-11-03T23:58:20.827Z,20.90
